MSC Mara — V7NF9 — position and weather

sailwx.info

Track history (hours):
 
Tides and Currents Weather Stations Pressure Air Temp Water Temp Dewpoint Dewpoint Depression Visibility Wind Speed Wind Dir Waves Ship Positions

MSC Mara

Last reported at 2017-May-20 11:42 UTC. Time now 2017-May-27 02:18 UTC.
Position S 27°08' E 153°21'.

Length 294 m; draft 10.6 m.

Type: Ship (hazmat cat C). MMSI: 538002955.

Date/timePositionNaut miles runAvg speedWind from/ knotsBaromVisibWave heightAir tempDewpointWater temp
2017-May-20 11:42S 27°08' E 153°21'618.7
2017-May-20 11:22S 27°14' E 153°20'817.3
2017-May-20 10:55S 27°18' E 153°13'511.2
2017-May-20 10:30S 27°22' E 153°10'0 0.1
2017-May-20 09:22S 27°22' E 153°10'0 0.0
2017-May-20 08:52S 27°22' E 153°10'0 0.0
2017-May-20 08:28S 27°22' E 153°10'0 0.0
2017-May-20 07:49S 27°22' E 153°10'0 0.0
2017-May-20 07:19S 27°22' E 153°10'0 0.0
2017-May-20 06:58S 27°22' E 153°10'0 0.0
2017-May-20 06:28S 27°22' E 153°10'0 0.0
2017-May-20 05:58S 27°22' E 153°10'0 0.0
2017-May-20 05:22S 27°22' E 153°10'0 0.0
2017-May-19 19:15S 27°22' E 153°10'0 0.0
2017-May-19 19:00S 27°22' E 153°10'0 0.0
2017-May-19 18:30S 27°22' E 153°10'0 0.0
2017-May-19 18:00S 27°22' E 153°10'0 0.0
2017-May-19 17:27S 27°22' E 153°10'0 0.0
2017-May-19 17:00S 27°22' E 153°10'0 0.0
2017-May-19 16:30S 27°22' E 153°10'0 0.0
2017-May-19 16:00S 27°22' E 153°10'0 0.0
2017-May-19 15:30S 27°22' E 153°10'0 0.0
2017-May-19 15:00S 27°22' E 153°10'0 0.0
2017-May-19 14:00S 27°22' E 153°10'0 0.0
2017-May-19 11:51S 27°22' E 153°10'0 0.1
2017-May-19 11:28S 27°22' E 153°10'3 6.3
2017-May-19 11:00S 27°20' E 153°12'714.8
2017-May-19 10:30S 27°15' E 153°18'40 5.1
2017-May-19 02:41S 27°36' E 153°57'416.4
2017-May-19 02:28S 27°40' E 153°58'816.2
2017-May-19 02:00S 27°47' E 153°60'29515.4
2017-May-18 06:48S 32°36' E 152°48'413.3
2017-May-18 06:31S 32°39' E 152°45'713.2
2017-May-18 06:00S 32°45' E 152°41'713.1
2017-May-18 05:30S 32°50' E 152°38'613.1
2017-May-18 05:01S 32°56' E 152°34'713.2
2017-May-18 04:31S 33°02' E 152°31'612.8
2017-May-18 04:01S 33°08' E 152°28'612.9
2017-May-18 03:31S 33°14' E 152°24'713.5
2017-May-18 03:00S 33°20' E 152°20'5414.0
2017-May-17 23:11S 33°56' E 151°32'  
2017-May-15 13:05S 38°19' E 149°02'114.7
2017-May-15 13:00S 38°20' E 149°01'815.2
2017-May-15 12:30S 38°25' E 148°53'815.3
2017-May-15 12:00S 38°29' E 148°45'18310.3
2017-May-14 18:10S 38°01' E 144°55'316.9
2017-May-14 18:00S 37°59' E 144°55'713.8
2017-May-14 17:30S 37°52' E 144°55'3 5.9
2017-May-14 17:00S 37°49' E 144°55'0 0.0
2017-May-14 01:29S 37°49' E 144°55'0 0.0
2017-May-14 00:50S 37°49' E 144°55'0 0.0
2017-May-13 23:55S 37°49' E 144°55'0 0.0
2017-May-13 23:25S 37°49' E 144°55'0 0.0
2017-May-13 20:31S 37°49' E 144°55'0 0.0
2017-May-13 20:22S 37°49' E 144°55'0 0.0
2017-May-13 16:13S 37°49' E 144°55'0 0.0
2017-May-13 13:52S 37°49' E 144°55'0 0.0
2017-May-13 13:22S 37°49' E 144°55'0 0.0
2017-May-13 12:16S 37°49' E 144°55'0 0.0
2017-May-13 11:58S 37°49' E 144°55'0 0.0
2017-May-13 09:31S 37°49' E 144°55'0 0.0
2017-May-13 09:22S 37°49' E 144°55'0 0.0
2017-May-13 07:49S 37°49' E 144°55'0 0.0
2017-May-13 07:27S 37°49' E 144°55'1 1.2
2017-May-13 07:00S 37°49' E 144°55'2 4.8
2017-May-13 06:30S 37°52' E 144°55'611.1
2017-May-13 06:00S 37°57' E 144°55'1 2.5
2017-May-13 05:30S 37°58' E 144°54'1 2.2
2017-May-13 05:00S 37°59' E 144°54'612.3
2017-May-13 04:30S 38°05' E 144°55'120 7.9
2017-May-12 13:19S 38°58' E 147°12'717.4
2017-May-12 12:57S 38°56' E 147°21'817.4
2017-May-12 12:28S 38°53' E 147°31'817.4
2017-May-12 12:00S 38°51' E 147°40'917.4
2017-May-12 11:30S 38°48' E 147°51'917.3
2017-May-12 11:00S 38°45' E 148°01'917.1
2017-May-12 10:28S 38°42' E 148°13'816.5
2017-May-12 10:00S 38°38' E 148°21'816.4
2017-May-12 09:30S 38°33' E 148°29'1516.8
2017-May-12 08:38S 38°24' E 148°44'216.9
2017-May-12 08:30S 38°23' E 148°47'917.3
2017-May-12 07:59S 38°18' E 148°56'917.1
2017-May-12 07:28S 38°13' E 149°05'715.4
2017-May-12 07:00S 38°08' E 149°12'1115.9
2017-May-12 06:20S 38°02' E 149°23'617.9
2017-May-12 05:59S 37°59' E 149°30'31217.2
2017-May-11 11:52S 33°21' E 152°25'1216.3
2017-May-11 11:09S 33°10' E 152°30'616.7
2017-May-11 10:45S 33°04' E 152°33'416.8
2017-May-11 10:30S 33°00' E 152°35'917.0
2017-May-11 10:00S 32°53' E 152°39'917.7
2017-May-11 09:30S 32°45' E 152°43'918.0
2017-May-11 09:00S 32°36' E 152°48'  
Track history (hours):
 
Tides and Currents Weather Stations Pressure Air Temp Water Temp Dewpoint Dewpoint Depression Visibility Wind Speed Wind Dir Waves Ship Positions

MSC Mara

Last reported at 2017-May-20 11:42 UTC. Time now 2017-May-27 02:18 UTC.
Position S 27°08' E 153°21'.

Length 294 m; draft 10.6 m.

Type: Ship (hazmat cat C). MMSI: 538002955.

Date/timePositionNaut miles runAvg speedWind from/ knotsBaromVisibWave heightAir tempDewpointWater temp
2017-May-20 11:42S 27°08' E 153°21'618.7
2017-May-20 11:22S 27°14' E 153°20'817.3
2017-May-20 10:55S 27°18' E 153°13'511.2
2017-May-20 10:30S 27°22' E 153°10'0 0.1
2017-May-20 09:22S 27°22' E 153°10'0 0.0
2017-May-20 08:52S 27°22' E 153°10'0 0.0
2017-May-20 08:28S 27°22' E 153°10'0 0.0
2017-May-20 07:49S 27°22' E 153°10'0 0.0
2017-May-20 07:19S 27°22' E 153°10'0 0.0
2017-May-20 06:58S 27°22' E 153°10'0 0.0
2017-May-20 06:28S 27°22' E 153°10'0 0.0
2017-May-20 05:58S 27°22' E 153°10'0 0.0
2017-May-20 05:22S 27°22' E 153°10'0 0.0
2017-May-19 19:15S 27°22' E 153°10'0 0.0
2017-May-19 19:00S 27°22' E 153°10'0 0.0
2017-May-19 18:30S 27°22' E 153°10'0 0.0
2017-May-19 18:00S 27°22' E 153°10'0 0.0
2017-May-19 17:27S 27°22' E 153°10'0 0.0
2017-May-19 17:00S 27°22' E 153°10'0 0.0
2017-May-19 16:30S 27°22' E 153°10'0 0.0
2017-May-19 16:00S 27°22' E 153°10'0 0.0
2017-May-19 15:30S 27°22' E 153°10'0 0.0
2017-May-19 15:00S 27°22' E 153°10'0 0.0
2017-May-19 14:00S 27°22' E 153°10'0 0.0
2017-May-19 11:51S 27°22' E 153°10'0 0.1
2017-May-19 11:28S 27°22' E 153°10'3 6.3
2017-May-19 11:00S 27°20' E 153°12'714.8
2017-May-19 10:30S 27°15' E 153°18'40 5.1
2017-May-19 02:41S 27°36' E 153°57'416.4
2017-May-19 02:28S 27°40' E 153°58'816.2
2017-May-19 02:00S 27°47' E 153°60'29515.4
2017-May-18 06:48S 32°36' E 152°48'413.3
2017-May-18 06:31S 32°39' E 152°45'713.2
2017-May-18 06:00S 32°45' E 152°41'713.1
2017-May-18 05:30S 32°50' E 152°38'613.1
2017-May-18 05:01S 32°56' E 152°34'713.2
2017-May-18 04:31S 33°02' E 152°31'612.8
2017-May-18 04:01S 33°08' E 152°28'612.9
2017-May-18 03:31S 33°14' E 152°24'713.5
2017-May-18 03:00S 33°20' E 152°20'5414.0
2017-May-17 23:11S 33°56' E 151°32'  
2017-May-15 13:05S 38°19' E 149°02'114.7
2017-May-15 13:00S 38°20' E 149°01'815.2
2017-May-15 12:30S 38°25' E 148°53'815.3
2017-May-15 12:00S 38°29' E 148°45'18310.3
2017-May-14 18:10S 38°01' E 144°55'316.9
2017-May-14 18:00S 37°59' E 144°55'713.8
2017-May-14 17:30S 37°52' E 144°55'3 5.9
2017-May-14 17:00S 37°49' E 144°55'0 0.0
2017-May-14 01:29S 37°49' E 144°55'0 0.0
2017-May-14 00:50S 37°49' E 144°55'0 0.0
2017-May-13 23:55S 37°49' E 144°55'0 0.0
2017-May-13 23:25S 37°49' E 144°55'0 0.0
2017-May-13 20:31S 37°49' E 144°55'0 0.0
2017-May-13 20:22S 37°49' E 144°55'0 0.0
2017-May-13 16:13S 37°49' E 144°55'0 0.0
2017-May-13 13:52S 37°49' E 144°55'0 0.0
2017-May-13 13:22S 37°49' E 144°55'0 0.0
2017-May-13 12:16S 37°49' E 144°55'0 0.0
2017-May-13 11:58S 37°49' E 144°55'0 0.0
2017-May-13 09:31S 37°49' E 144°55'0 0.0
2017-May-13 09:22S 37°49' E 144°55'0 0.0
2017-May-13 07:49S 37°49' E 144°55'0 0.0
2017-May-13 07:27S 37°49' E 144°55'1 1.2
2017-May-13 07:00S 37°49' E 144°55'2 4.8
2017-May-13 06:30S 37°52' E 144°55'611.1
2017-May-13 06:00S 37°57' E 144°55'1 2.5
2017-May-13 05:30S 37°58' E 144°54'1 2.2
2017-May-13 05:00S 37°59' E 144°54'612.3
2017-May-13 04:30S 38°05' E 144°55'120 7.9
2017-May-12 13:19S 38°58' E 147°12'717.4
2017-May-12 12:57S 38°56' E 147°21'817.4
2017-May-12 12:28S 38°53' E 147°31'817.4
2017-May-12 12:00S 38°51' E 147°40'917.4
2017-May-12 11:30S 38°48' E 147°51'917.3
2017-May-12 11:00S 38°45' E 148°01'917.1
2017-May-12 10:28S 38°42' E 148°13'816.5
2017-May-12 10:00S 38°38' E 148°21'816.4
2017-May-12 09:30S 38°33' E 148°29'1516.8
2017-May-12 08:38S 38°24' E 148°44'216.9
2017-May-12 08:30S 38°23' E 148°47'917.3
2017-May-12 07:59S 38°18' E 148°56'917.1
2017-May-12 07:28S 38°13' E 149°05'715.4
2017-May-12 07:00S 38°08' E 149°12'1115.9
2017-May-12 06:20S 38°02' E 149°23'617.9
2017-May-12 05:59S 37°59' E 149°30'31217.2
2017-May-11 11:52S 33°21' E 152°25'1216.3
2017-May-11 11:09S 33°10' E 152°30'616.7
2017-May-11 10:45S 33°04' E 152°33'416.8
2017-May-11 10:30S 33°00' E 152°35'917.0
2017-May-11 10:00S 32°53' E 152°39'917.7
2017-May-11 09:30S 32°45' E 152°43'918.0
2017-May-11 09:00S 32°36' E 152°48'  

Dump ship's entire track history